Terminal Aerodrome Forecast
Issued by NWS

Home | Current Version | Previous Version | Text Only | Print | Product List | Glossary Off
Versions: 1 2 3 4 5 6 7 8 9 10 11 12 13 14 15 16 17 18 19 20 21

000
FTUS43 KBIS 251100
TAFJMS
TAF
KJMS 251126Z 2512/2612 32008KT P6SM SCT008 SCT013 BKN100
      TEMPO 2512/2515 BKN008 OVC013
     FM251500 33014KT P6SM -SHSN BKN008 OVC015
     FM252000 34015KT P6SM -SHSN OVC015
     FM260600 33011KT 5SM BR OVC009=

USA.gov is the U.S. government's official web portal to all federal, state and local government web resources and services.